Time;durP1;ratioP1;P1;durP2;ratioP2;P2;SDS_P1;SDS_P2;PMS_P1;PMS_P2;Temp;Humidity;BMP_temperature;BMP_pressure;BME280_temperature;BME280_humidity;BME280_pressure;Samples;Min_cycle;Max_cycle;Signal;HPM_P1;HPM_P2
2021/12/23 00:02:24;;;;;;;22.02;3.45;;;;;;;;;;4960730;28;20046;-30
2021/12/23 00:04:50;;;;;;;13.27;3.20;;;;;;;;;;4977656;28;20043;-32
2021/12/23 00:07:16;;;;;;;13.55;3.47;;;;;;;;;;4977943;28;20532;-30
2021/12/23 00:12:16;;;;;;;13.75;3.20;;;;;;;;;;4977664;28;20073;-32
2021/12/23 00:14:42;;;;;;;18.38;3.42;;;;;;;;;;4977846;28;20030;-31
2021/12/23 00:19:58;;;;;;;14.05;3.60;;;;;;;;;;4978166;28;20046;-31
2021/12/23 00:25:09;;;;;;;19.33;3.55;;;;;;;;;;4977762;28;19956;-30
2021/12/23 00:27:35;;;;;;;19.17;3.95;;;;;;;;;;4960292;28;20035;-32
2021/12/23 00:30:02;;;;;;;18.23;3.45;;;;;;;;;;4977388;28;20108;-30
2021/12/23 00:32:28;;;;;;;9.55;3.00;;;;;;;;;;4977211;28;20022;-30
2021/12/23 00:34:54;;;;;;;16.38;3.65;;;;;;;;;;4960243;28;20343;-32
2021/12/23 00:37:20;;;;;;;12.55;3.17;;;;;;;;;;4977262;28;20065;-32
2021/12/23 00:39:46;;;;;;;13.05;3.05;;;;;;;;;;4960143;28;20019;-31
2021/12/23 00:42:13;;;;;;;23.88;3.78;;;;;;;;;;4977335;28;20030;-30
2021/12/23 00:44:40;;;;;;;20.58;4.63;;;;;;;;;;4977160;28;20031;-31
2021/12/23 00:47:07;;;;;;;19.67;3.28;;;;;;;;;;4977294;28;20049;-30
2021/12/23 00:49:33;;;;;;;9.45;2.80;;;;;;;;;;4976894;28;20038;-31
2021/12/23 00:52:02;;;;;;;16.05;3.75;;;;;;;;;;4977159;28;20022;-30
2021/12/23 00:54:28;;;;;;;17.58;2.97;;;;;;;;;;4977179;28;20037;-30
2021/12/23 00:56:55;;;;;;;20.15;3.97;;;;;;;;;;4977098;28;20058;-31
2021/12/23 00:59:21;;;;;;;18.70;3.67;;;;;;;;;;4977018;28;20034;-32
2021/12/23 01:01:47;;;;;;;9.80;3.25;;;;;;;;;;4977668;28;20349;-31
2021/12/23 01:04:14;;;;;;;20.67;3.10;;;;;;;;;;4959420;28;20042;-30
2021/12/23 01:06:41;;;;;;;13.55;3.03;;;;;;;;;;4976710;28;20038;-30
2021/12/23 01:09:07;;;;;;;17.27;3.78;;;;;;;;;;4976863;28;20026;-31
2021/12/23 01:11:33;;;;;;;13.20;3.13;;;;;;;;;;4960145;28;20103;-31
2021/12/23 01:14:25;;;;;;;9.48;2.85;;;;;;;;;;4976548;28;20446;-32
2021/12/23 01:17:10;;;;;;;15.27;3.67;;;;;;;;;;4975955;28;20039;-30
2021/12/23 01:19:39;;;;;;;11.90;2.70;;;;;;;;;;4976334;28;20125;-31
2021/12/23 01:22:06;;;;;;;10.45;4.32;;;;;;;;;;4976717;28;20038;-30
2021/12/23 01:24:33;;;;;;;14.23;3.42;;;;;;;;;;4976937;28;20033;-30
2021/12/23 01:27:00;;;;;;;14.75;3.28;;;;;;;;;;4976676;28;20061;-31
2021/12/23 01:29:27;;;;;;;16.17;4.32;;;;;;;;;;4976256;28;20035;-32
2021/12/23 01:31:53;;;;;;;8.27;3.78;;;;;;;;;;4976230;28;20143;-31
2021/12/23 01:34:19;;;;;;;10.23;3.83;;;;;;;;;;4976087;28;20026;-30
2021/12/23 01:36:45;;;;;;;15.70;3.88;;;;;;;;;;4959240;28;20046;-31
2021/12/23 01:39:14;;;;;;;16.58;3.63;;;;;;;;;;4976203;28;20027;-30
2021/12/23 01:41:40;;;;;;;8.68;3.15;;;;;;;;;;4976171;28;20033;-31
2021/12/23 01:44:07;;;;;;;13.10;3.72;;;;;;;;;;4976025;28;20031;-31
2021/12/23 01:46:33;;;;;;;12.73;3.67;;;;;;;;;;4976301;28;20026;-30
2021/12/23 01:48:59;;;;;;;11.95;2.83;;;;;;;;;;4975932;28;20093;-30
2021/12/23 01:51:25;;;;;;;16.83;4.38;;;;;;;;;;4976005;28;20473;-32
2021/12/23 01:53:52;;;;;;;13.55;2.83;;;;;;;;;;4975888;28;20023;-31
2021/12/23 01:56:18;;;;;;;21.88;4.72;;;;;;;;;;4976232;28;20417;-31
2021/12/23 01:58:45;;;;;;;8.70;2.88;;;;;;;;;;4975863;28;20031;-31
2021/12/23 02:01:11;;;;;;;16.27;2.90;;;;;;;;;;4975837;28;20034;-30
2021/12/23 02:03:38;;;;;;;13.52;3.70;;;;;;;;;;4975570;28;20174;-31
2021/12/23 02:06:04;;;;;;;7.45;2.50;;;;;;;;;;4976342;28;20045;-31
2021/12/23 02:08:31;;;;;;;17.52;2.88;;;;;;;;;;4958662;28;20118;-30
2021/12/23 02:10:58;;;;;;;13.38;3.65;;;;;;;;;;4976231;28;20031;-30
2021/12/23 02:13:24;;;;;;;7.90;2.70;;;;;;;;;;4975683;28;20023;-31
2021/12/23 02:15:51;;;;;;;14.35;3.15;;;;;;;;;;4975708;28;20035;-30
2021/12/23 02:18:17;;;;;;;17.73;4.63;;;;;;;;;;4975643;28;20031;-31
2021/12/23 02:20:43;;;;;;;13.65;2.78;;;;;;;;;;4975910;28;20335;-30
2021/12/23 02:23:10;;;;;;;11.40;3.03;;;;;;;;;;4976342;28;20030;-31
2021/12/23 02:25:37;;;;;;;13.93;3.72;;;;;;;;;;4975532;28;20035;-32
2021/12/23 02:28:07;;;;;;;12.75;3.63;;;;;;;;;;4975793;28;20031;-30
2021/12/23 02:30:34;;;;;;;14.57;2.60;;;;;;;;;;4975579;28;20454;-31
2021/12/23 02:33:00;;;;;;;9.80;3.35;;;;;;;;;;4975737;28;20093;-32
2021/12/23 02:35:27;;;;;;;15.55;3.88;;;;;;;;;;4975543;28;20026;-30
2021/12/23 02:37:53;;;;;;;7.75;2.63;;;;;;;;;;4975460;28;20339;-30
2021/12/23 02:40:24;;;;;;;19.92;3.10;;;;;;;;;;4975982;28;20031;-30
2021/12/23 02:42:50;;;;;;;13.77;3.30;;;;;;;;;;4975648;28;20430;-31
2021/12/23 02:45:17;;;;;;;9.63;2.53;;;;;;;;;;4976437;28;20022;-30
2021/12/23 02:47:43;;;;;;;9.55;2.63;;;;;;;;;;4979374;28;20026;-31
2021/12/23 02:50:09;;;;;;;9.60;2.85;;;;;;;;;;4979639;28;20030;-31
2021/12/23 02:52:36;;;;;;;10.07;2.47;;;;;;;;;;4979140;28;20029;-30
2021/12/23 02:55:03;;;;;;;8.60;2.58;;;;;;;;;;4979154;28;20057;-30
2021/12/23 02:57:31;;;;;;;12.52;2.78;;;;;;;;;;4979152;28;20034;-30
2021/12/23 02:59:58;;;;;;;5.32;2.40;;;;;;;;;;4979272;28;20425;-32
2021/12/23 03:02:24;;;;;;;14.13;3.42;;;;;;;;;;4979262;28;20035;-32
2021/12/23 03:04:50;;;;;;;12.10;3.17;;;;;;;;;;4961899;28;20059;-32
2021/12/23 03:07:16;;;;;;;12.02;2.47;;;;;;;;;;4979247;28;20026;-31
2021/12/23 03:09:47;;;;;;;15.15;3.13;;;;;;;;;;4978837;28;20078;-31
2021/12/23 03:12:13;;;;;;;10.32;4.22;;;;;;;;;;4978794;28;20023;-30
2021/12/23 03:14:39;;;;;;;8.75;3.42;;;;;;;;;;4979319;28;20031;-30
2021/12/23 03:17:05;;;;;;;12.93;3.63;;;;;;;;;;4979043;28;20035;-32
2021/12/23 03:19:32;;;;;;;12.80;3.25;;;;;;;;;;4978707;28;20339;-32
2021/12/23 03:21:58;;;;;;;11.95;3.15;;;;;;;;;;4978642;28;20106;-31
2021/12/23 03:24:24;;;;;;;13.55;3.95;;;;;;;;;;4978667;28;20031;-30
2021/12/23 03:26:51;;;;;;;7.43;2.25;;;;;;;;;;4978878;28;20023;-31
2021/12/23 03:29:17;;;;;;;10.32;2.40;;;;;;;;;;4978729;28;20138;-30
2021/12/23 03:31:43;;;;;;;13.43;2.95;;;;;;;;;;4978723;28;20038;-30
2021/12/23 03:34:09;;;;;;;7.32;2.80;;;;;;;;;;4978413;28;20018;-31
2021/12/23 03:36:37;;;;;;;9.50;2.60;;;;;;;;;;4978427;28;20027;-30
2021/12/23 03:39:04;;;;;;;5.72;2.47;;;;;;;;;;4978371;28;20052;-31
2021/12/23 03:41:30;;;;;;;9.55;2.67;;;;;;;;;;4978601;28;20030;-32
2021/12/23 03:43:57;;;;;;;9.35;2.90;;;;;;;;;;4978239;28;20105;-30
2021/12/23 03:46:23;;;;;;;9.80;2.97;;;;;;;;;;4961238;28;20031;-30
2021/12/23 03:48:49;;;;;;;8.73;2.83;;;;;;;;;;4978413;28;20035;-31
2021/12/23 03:51:15;;;;;;;8.68;3.28;;;;;;;;;;4978180;28;20030;-30
2021/12/23 03:53:41;;;;;;;8.30;2.17;;;;;;;;;;4978038;28;20046;-31
2021/12/23 03:56:07;;;;;;;8.18;2.65;;;;;;;;;;4977613;28;20090;-30
2021/12/23 03:58:34;;;;;;;10.13;2.50;;;;;;;;;;4978283;28;20035;-31
2021/12/23 04:01:00;;;;;;;9.55;2.15;;;;;;;;;;4960931;28;20039;-31
2021/12/23 04:03:26;;;;;;;9.20;3.42;;;;;;;;;;4977866;28;20892;-32
2021/12/23 04:05:52;;;;;;;7.13;2.42;;;;;;;;;;4978165;28;20045;-31
2021/12/23 04:08:19;;;;;;;6.82;2.30;;;;;;;;;;4977843;28;20059;-31
2021/12/23 04:10:45;;;;;;;15.52;3.20;;;;;;;;;;4978046;28;20097;-30
2021/12/23 04:13:11;;;;;;;14.43;2.83;;;;;;;;;;4977687;28;20031;-32
2021/12/23 04:15:37;;;;;;;11.55;3.33;;;;;;;;;;4977713;28;20050;-30
2021/12/23 04:18:04;;;;;;;10.65;2.10;;;;;;;;;;4978184;28;20106;-31
2021/12/23 04:20:45;;;;;;;6.75;2.13;;;;;;;;;;4960481;28;20117;-30
2021/12/23 04:23:12;;;;;;;8.63;2.95;;;;;;;;;;4977710;28;20023;-31
2021/12/23 04:25:38;;;;;;;10.43;2.38;;;;;;;;;;4977711;28;20059;-32
2021/12/23 04:28:05;;;;;;;5.93;2.22;;;;;;;;;;4977341;28;20037;-31
2021/12/23 04:30:32;;;;;;;6.63;1.92;;;;;;;;;;4977603;28;20037;-31
2021/12/23 04:32:58;;;;;;;8.60;2.80;;;;;;;;;;4960292;28;20023;-32
2021/12/23 04:35:24;;;;;;;11.27;2.65;;;;;;;;;;4977348;28;20034;-30
2021/12/23 04:37:50;;;;;;;6.38;2.03;;;;;;;;;;4977889;28;20478;-30
2021/12/23 04:40:17;;;;;;;7.22;2.35;;;;;;;;;;4977293;28;20037;-31
2021/12/23 04:42:43;;;;;;;12.30;3.85;;;;;;;;;;4977432;28;20182;-33
2021/12/23 04:45:09;;;;;;;7.18;2.20;;;;;;;;;;4977677;28;20114;-31
2021/12/23 04:47:36;;;;;;;7.25;3.00;;;;;;;;;;4976971;28;20042;-33
2021/12/23 04:50:03;;;;;;;8.35;2.05;;;;;;;;;;4977265;28;20026;-31
2021/12/23 04:52:30;;;;;;;8.27;2.05;;;;;;;;;;4977239;28;20067;-31
2021/12/23 04:54:56;;;;;;;6.53;2.00;;;;;;;;;;4976966;28;20037;-31
2021/12/23 04:57:22;;;;;;;12.30;2.60;;;;;;;;;;4959850;28;20370;-31
2021/12/23 04:59:48;;;;;;;7.40;2.20;;;;;;;;;;4977362;28;20034;-32
2021/12/23 05:02:15;;;;;;;7.53;2.30;;;;;;;;;;4976736;28;20085;-31
2021/12/23 05:04:41;;;;;;;10.90;2.63;;;;;;;;;;4976557;28;20417;-33
2021/12/23 05:07:07;;;;;;;8.18;2.67;;;;;;;;;;4976603;28;20031;-32
2021/12/23 05:09:33;;;;;;;11.60;2.85;;;;;;;;;;4976093;28;20034;-31
2021/12/23 05:11:59;;;;;;;6.97;2.20;;;;;;;;;;4976474;28;20027;-31
2021/12/23 05:14:25;;;;;;;6.72;2.63;;;;;;;;;;4976491;28;20093;-31
2021/12/23 05:16:51;;;;;;;5.45;2.60;;;;;;;;;;4976745;28;20058;-31
2021/12/23 05:19:18;;;;;;;7.32;3.13;;;;;;;;;;4976693;28;20089;-32
2021/12/23 05:21:44;;;;;;;8.70;2.50;;;;;;;;;;4976649;28;20122;-31
2021/12/23 05:24:10;;;;;;;9.27;2.22;;;;;;;;;;4976566;28;20038;-31
2021/12/23 05:26:36;;;;;;;7.47;2.17;;;;;;;;;;4976583;28;20034;-31
2021/12/23 05:29:03;;;;;;;13.15;3.17;;;;;;;;;;4976456;28;20026;-31
2021/12/23 05:31:29;;;;;;;8.02;2.20;;;;;;;;;;4976154;28;20030;-30
2021/12/23 05:33:55;;;;;;;19.98;2.95;;;;;;;;;;4976211;28;20466;-29
2021/12/23 05:36:21;;;;;;;5.40;2.50;;;;;;;;;;4976590;28;20027;-34
2021/12/23 05:38:47;;;;;;;8.68;2.78;;;;;;;;;;4976106;28;20029;-33
2021/12/23 05:41:14;;;;;;;15.23;4.65;;;;;;;;;;4976273;28;20410;-31
2021/12/23 05:43:40;;;;;;;6.78;1.90;;;;;;;;;;4958986;28;20422;-30
2021/12/23 05:46:06;;;;;;;14.85;2.72;;;;;;;;;;4976038;28;20026;-31
2021/12/23 05:48:32;;;;;;;10.55;2.38;;;;;;;;;;4975956;28;20081;-31
2021/12/23 05:50:58;;;;;;;8.30;2.20;;;;;;;;;;4975902;28;20023;-30
2021/12/23 05:53:24;;;;;;;6.78;2.40;;;;;;;;;;4975808;28;20023;-31
2021/12/23 05:55:52;;;;;;;7.00;2.63;;;;;;;;;;4975917;28;20030;-31
2021/12/23 05:58:19;;;;;;;14.18;2.35;;;;;;;;;;4975797;28;20092;-31
2021/12/23 06:03:27;;;;;;;6.53;2.50;;;;;;;;;;5246683;23;20462;-26
2021/12/23 06:05:53;;;;;;;10.30;2.30;;;;;;;;;;4958644;28;20037;-26
2021/12/23 06:08:20;;;;;;;7.47;2.13;;;;;;;;;;4975623;28;20031;-26
2021/12/23 06:10:46;;;;;;;7.15;2.50;;;;;;;;;;4975736;28;20066;-26
2021/12/23 06:13:12;;;;;;;8.25;3.05;;;;;;;;;;4975375;28;20018;-26
2021/12/23 06:15:38;;;;;;;7.43;2.03;;;;;;;;;;4975447;28;20034;-26
2021/12/23 06:18:04;;;;;;;8.27;2.60;;;;;;;;;;4976012;28;20035;-26
2021/12/23 06:20:31;;;;;;;5.43;2.92;;;;;;;;;;4975571;28;20037;-26
2021/12/23 06:22:57;;;;;;;12.10;2.80;;;;;;;;;;4975391;28;20023;-26
2021/12/23 06:25:23;;;;;;;6.80;2.22;;;;;;;;;;4975320;28;20434;-26
2021/12/23 06:27:49;;;;;;;10.45;3.15;;;;;;;;;;4975288;28;20042;-26
2021/12/23 06:30:19;;;;;;;7.72;2.67;;;;;;;;;;4958252;28;20528;-24
2021/12/23 06:32:56;;;;;;;7.70;2.40;;;;;;;;;;4975603;28;20031;-24
2021/12/23 06:35:24;;;;;;;7.53;2.67;;;;;;;;;;4975266;28;20027;-24
2021/12/23 06:37:50;;;;;;;13.10;2.63;;;;;;;;;;4975626;28;20022;-24
2021/12/23 06:40:17;;;;;;;17.92;2.83;;;;;;;;;;4975342;28;20057;-25
2021/12/23 06:42:44;;;;;;;15.43;3.33;;;;;;;;;;4975161;28;20496;-24
2021/12/23 06:45:11;;;;;;;14.73;2.42;;;;;;;;;;4974982;28;20177;-25
2021/12/23 06:47:38;;;;;;;15.25;2.88;;;;;;;;;;4975159;28;20031;-24
2021/12/23 06:50:05;;;;;;;16.00;2.15;;;;;;;;;;4974963;28;20087;-24
2021/12/23 06:52:32;;;;;;;7.55;2.25;;;;;;;;;;4975248;28;20031;-24
2021/12/23 06:54:59;;;;;;;11.60;2.28;;;;;;;;;;4975302;28;20031;-25
2021/12/23 06:57:26;;;;;;;9.75;2.00;;;;;;;;;;4975229;28;20346;-24
2021/12/23 06:59:53;;;;;;;9.77;2.45;;;;;;;;;;4974890;28;20038;-24
2021/12/23 07:02:19;;;;;;;8.82;3.47;;;;;;;;;;4974538;28;20023;-25
2021/12/23 07:04:45;;;;;;;7.47;2.03;;;;;;;;;;4975101;28;20038;-24
2021/12/23 07:07:23;;;;;;;15.68;4.00;;;;;;;;;;4974788;28;20057;-24
2021/12/23 07:09:50;;;;;;;9.70;2.15;;;;;;;;;;4974996;28;20413;-24
2021/12/23 07:12:16;;;;;;;9.90;2.88;;;;;;;;;;4974728;28;20034;-24
2021/12/23 07:14:42;;;;;;;11.90;2.67;;;;;;;;;;4974974;28;20077;-20
2021/12/23 07:17:09;;;;;;;9.35;2.60;;;;;;;;;;4975009;28;20031;-22
2021/12/23 07:19:35;;;;;;;8.80;3.30;;;;;;;;;;4974985;28;20424;-21
2021/12/23 07:22:02;;;;;;;18.52;3.42;;;;;;;;;;4974812;28;20161;-20
2021/12/23 07:24:28;;;;;;;8.90;2.38;;;;;;;;;;4974781;28;20054;-20
2021/12/23 07:26:54;;;;;;;14.88;3.05;;;;;;;;;;4974895;28;20106;-20
2021/12/23 07:29:21;;;;;;;9.15;2.30;;;;;;;;;;4975128;28;20023;-20
2021/12/23 07:31:47;;;;;;;6.28;2.22;;;;;;;;;;4976463;28;20023;-20
2021/12/23 07:34:14;;;;;;;12.00;2.75;;;;;;;;;;4979013;28;20034;-20
2021/12/23 07:36:40;;;;;;;9.93;3.08;;;;;;;;;;4978247;28;20093;-23
2021/12/23 07:39:07;;;;;;;12.40;2.80;;;;;;;;;;4978512;28;20041;-20
2021/12/23 07:41:34;;;;;;;17.10;3.75;;;;;;;;;;4978644;28;20162;-22
2021/12/23 07:44:04;;;;;;;19.15;2.20;;;;;;;;;;4978516;28;20057;-21
2021/12/23 07:46:35;;;;;;;9.73;2.83;;;;;;;;;;4978408;28;20361;-21
2021/12/23 07:49:01;;;;;;;12.95;2.08;;;;;;;;;;4978244;28;20030;-21
2021/12/23 07:51:28;;;;;;;13.77;3.22;;;;;;;;;;4978005;28;20031;-21
2021/12/23 07:53:55;;;;;;;7.70;2.72;;;;;;;;;;4977836;28;20050;-21
2021/12/23 07:56:22;;;;;;;6.47;2.10;;;;;;;;;;4977963;28;20035;-20
2021/12/23 07:58:49;;;;;;;17.23;2.97;;;;;;;;;;4978240;28;20031;-21
2021/12/23 08:01:15;;;;;;;11.60;3.05;;;;;;;;;;4978158;28;20038;-21
2021/12/23 08:03:42;;;;;;;11.73;3.20;;;;;;;;;;4977546;28;20058;-20
2021/12/23 08:06:08;;;;;;;12.50;2.50;;;;;;;;;;4977780;28;20035;-20
2021/12/23 08:08:34;;;;;;;16.60;3.65;;;;;;;;;;4977727;28;20138;-20
2021/12/23 08:11:01;;;;;;;10.95;2.83;;;;;;;;;;4977900;28;20442;-20
2021/12/23 08:13:27;;;;;;;8.60;2.95;;;;;;;;;;4977788;28;20026;-21
2021/12/23 08:15:54;;;;;;;11.32;3.15;;;;;;;;;;4977563;28;20053;-20
2021/12/23 08:18:20;;;;;;;9.73;2.72;;;;;;;;;;4977523;28;20053;-22
2021/12/23 08:20:46;;;;;;;15.70;2.80;;;;;;;;;;4977679;28;20033;-23
2021/12/23 08:23:13;;;;;;;4.80;1.95;;;;;;;;;;4977713;28;20034;-22
2021/12/23 08:25:39;;;;;;;12.68;2.90;;;;;;;;;;4960563;28;20054;-22
2021/12/23 08:28:05;;;;;;;7.93;2.50;;;;;;;;;;4977288;28;20086;-24
2021/12/23 08:30:32;;;;;;;13.55;2.55;;;;;;;;;;4977380;28;20023;-23
2021/12/23 08:32:58;;;;;;;18.38;3.50;;;;;;;;;;4977451;28;20127;-23
2021/12/23 08:35:25;;;;;;;7.70;2.15;;;;;;;;;;4960420;28;20031;-23
2021/12/23 08:37:51;;;;;;;9.43;2.17;;;;;;;;;;4977445;28;20027;-22
2021/12/23 08:40:19;;;;;;;18.80;4.65;;;;;;;;;;4977468;28;20350;-22
2021/12/23 08:42:46;;;;;;;5.60;2.53;;;;;;;;;;4958895;28;20417;-23
2021/12/23 08:45:12;;;;;;;15.77;3.22;;;;;;;;;;4960211;28;20122;-23
2021/12/23 08:47:39;;;;;;;14.98;3.03;;;;;;;;;;4977064;28;20041;-21
2021/12/23 08:50:06;;;;;;;13.45;2.63;;;;;;;;;;4976946;28;20090;-21
2021/12/23 08:52:33;;;;;;;14.20;2.90;;;;;;;;;;4976926;28;20023;-22
2021/12/23 08:54:59;;;;;;;34.10;3.75;;;;;;;;;;4977511;28;20442;-22
2021/12/23 08:57:25;;;;;;;7.00;2.25;;;;;;;;;;4976838;28;20023;-22
2021/12/23 08:59:51;;;;;;;12.13;3.03;;;;;;;;;;4976728;28;20031;-21
2021/12/23 09:02:18;;;;;;;11.98;2.85;;;;;;;;;;4976707;28;20093;-22
2021/12/23 09:04:44;;;;;;;17.88;3.78;;;;;;;;;;4976955;28;20109;-23
2021/12/23 09:07:11;;;;;;;13.50;2.53;;;;;;;;;;4977067;28;20038;-22
2021/12/23 09:09:37;;;;;;;13.15;2.60;;;;;;;;;;4976378;28;20058;-22
2021/12/23 09:12:04;;;;;;;8.13;2.22;;;;;;;;;;4976584;28;20109;-22
2021/12/23 09:14:32;;;;;;;14.60;2.53;;;;;;;;;;4976902;28;20027;-22
2021/12/23 09:16:58;;;;;;;10.65;2.78;;;;;;;;;;4976398;28;20118;-21
2021/12/23 09:19:24;;;;;;;14.80;2.50;;;;;;;;;;4959444;28;20031;-21
2021/12/23 09:21:51;;;;;;;13.40;2.45;;;;;;;;;;4976179;28;20035;-22
2021/12/23 09:24:19;;;;;;;11.80;2.72;;;;;;;;;;4976362;28;20059;-22
2021/12/23 09:27:01;;;;;;;14.77;3.03;;;;;;;;;;4976257;28;20038;-21
2021/12/23 09:34:54;;;;;;;11.85;3.03;;;;;;;;;;4976397;28;20093;-22
2021/12/23 09:37:21;;;;;;;11.30;2.60;;;;;;;;;;4958797;28;20466;-22
2021/12/23 09:39:53;;;;;;;11.02;2.53;;;;;;;;;;4976050;28;20092;-22
2021/12/23 09:42:20;;;;;;;17.13;4.10;;;;;;;;;;4975935;28;20110;-22
2021/12/23 09:44:47;;;;;;;9.98;2.47;;;;;;;;;;4975903;28;20102;-22
2021/12/23 09:47:14;;;;;;;22.63;4.53;;;;;;;;;;4976156;28;20369;-22
2021/12/23 09:49:40;;;;;;;13.27;4.15;;;;;;;;;;4975995;28;20031;-21
2021/12/23 09:52:07;;;;;;;14.80;2.72;;;;;;;;;;4975841;28;20073;-23
2021/12/23 09:54:37;;;;;;;26.45;3.83;;;;;;;;;;4958222;28;20428;-22
2021/12/23 09:57:03;;;;;;;12.37;3.70;;;;;;;;;;4975919;28;20031;-22
2021/12/23 09:59:30;;;;;;;15.65;3.63;;;;;;;;;;4975833;28;20031;-22
2021/12/23 10:01:56;;;;;;;20.88;3.33;;;;;;;;;;4975704;28;20114;-22
2021/12/23 10:04:23;;;;;;;14.30;2.45;;;;;;;;;;4975713;28;20062;-21
2021/12/23 10:06:51;;;;;;;15.57;3.80;;;;;;;;;;4975773;28;20050;-22
2021/12/23 10:09:35;;;;;;;9.77;3.75;;;;;;;;;;4975975;28;20430;-22
2021/12/23 10:31:27;;;;;;;14.73;3.42;;;;;;;;;;4975827;28;20062;-22
2021/12/23 10:39:43;;;;;;;8.25;3.15;;;;;;;;;;4975139;28;20035;-22
2021/12/23 10:42:14;;;;;;;17.55;4.68;;;;;;;;;;4975328;28;20097;-25
2021/12/23 10:44:42;;;;;;;15.38;2.65;;;;;;;;;;4975069;28;20087;-22
2021/12/23 10:47:11;;;;;;;10.60;3.40;;;;;;;;;;4975178;28;20035;-22
2021/12/23 10:49:51;;;;;;;13.75;3.30;;;;;;;;;;4975151;28;20421;-23
2021/12/23 10:52:24;;;;;;;14.93;3.20;;;;;;;;;;4975068;28;20031;-22
2021/12/23 11:00:21;;;;;;;21.00;4.10;;;;;;;;;;4975462;28;20057;-22
2021/12/23 11:03:08;;;;;;;12.88;3.38;;;;;;;;;;4974680;28;20043;-22
2021/12/23 11:05:40;;;;;;;10.05;2.70;;;;;;;;;;4974925;28;20500;-22
2021/12/23 11:27:39;;;;;;;10.55;2.80;;;;;;;;;;4978879;28;20144;-24
2021/12/23 11:39:01;;;;;;;15.65;3.28;;;;;;;;;;4978616;28;20410;-23
2021/12/23 11:43:56;;;;;;;20.30;4.13;;;;;;;;;;4978224;28;20027;-22
2021/12/23 11:46:38;;;;;;;18.42;3.72;;;;;;;;;;4961096;28;20039;-22
2021/12/23 11:49:08;;;;;;;14.10;4.30;;;;;;;;;;4977770;28;20035;-22
2021/12/23 11:57:46;;;;;;;10.57;3.33;;;;;;;;;;4978132;28;20038;-23
2021/12/23 12:00:50;;;;;;;14.90;3.25;;;;;;;;;;4960851;28;20399;-22
2021/12/23 12:03:16;;;;;;;10.82;3.08;;;;;;;;;;4977384;28;20054;-22
2021/12/23 12:05:44;;;;;;;8.02;3.20;;;;;;;;;;4960739;28;20023;-22
2021/12/23 12:08:16;;;;;;;19.70;3.20;;;;;;;;;;4977848;28;20530;-22
2021/12/23 12:10:45;;;;;;;13.02;3.35;;;;;;;;;;4977662;28;20034;-22
2021/12/23 12:13:16;;;;;;;14.25;2.63;;;;;;;;;;4960520;28;20031;-22
2021/12/23 12:15:47;;;;;;;14.18;2.40;;;;;;;;;;4960610;28;20026;-23
2021/12/23 12:18:23;;;;;;;17.33;2.97;;;;;;;;;;4977582;28;20042;-22
2021/12/23 12:20:54;;;;;;;25.25;3.33;;;;;;;;;;4978148;28;20038;-22
2021/12/23 12:23:32;;;;;;;17.98;3.13;;;;;;;;;;4977437;28;20506;-22
2021/12/23 12:26:03;;;;;;;8.93;3.08;;;;;;;;;;4977342;28;20048;-22
2021/12/23 12:28:33;;;;;;;14.43;3.03;;;;;;;;;;4977416;28;20092;-22
2021/12/23 12:31:03;;;;;;;11.80;3.35;;;;;;;;;;4978005;28;20402;-23
2021/12/23 12:33:35;;;;;;;22.40;3.95;;;;;;;;;;4977248;28;20023;-22
2021/12/23 12:36:02;;;;;;;12.43;3.83;;;;;;;;;;4977375;28;20031;-25
2021/12/23 12:38:30;;;;;;;8.45;3.15;;;;;;;;;;4960085;28;20054;-23
2021/12/23 12:41:02;;;;;;;13.18;3.85;;;;;;;;;;4977218;28;20049;-22
2021/12/23 12:43:33;;;;;;;11.32;2.97;;;;;;;;;;4977165;28;20023;-22
2021/12/23 12:45:59;;;;;;;10.27;3.08;;;;;;;;;;4976906;28;20038;-26
2021/12/23 12:48:45;;;;;;;15.55;3.53;;;;;;;;;;4976857;28;20185;-22
2021/12/23 12:51:21;;;;;;;14.45;3.40;;;;;;;;;;4976903;28;20034;-23
2021/12/23 12:53:55;;;;;;;14.25;3.42;;;;;;;;;;4976854;28;20023;-22
2021/12/23 12:56:28;;;;;;;13.70;2.97;;;;;;;;;;4976791;28;20042;-22
2021/12/23 12:58:55;;;;;;;15.57;3.60;;;;;;;;;;4977381;28;20041;-22
2021/12/23 13:01:34;;;;;;;27.13;4.28;;;;;;;;;;4976767;28;20027;-22
2021/12/23 13:04:01;;;;;;;19.05;3.80;;;;;;;;;;4976305;28;20046;-21
2021/12/23 13:06:36;;;;;;;13.95;3.10;;;;;;;;;;4976884;28;20031;-22
2021/12/23 13:09:06;;;;;;;14.07;3.05;;;;;;;;;;4976597;28;20121;-22
2021/12/23 13:11:33;;;;;;;31.63;4.68;;;;;;;;;;4976552;28;20034;-23
2021/12/23 13:14:00;;;;;;;13.13;3.55;;;;;;;;;;4976465;28;20162;-24
2021/12/23 13:16:27;;;;;;;14.43;4.03;;;;;;;;;;4976522;28;20081;-21
2021/12/23 13:19:12;;;;;;;14.50;2.92;;;;;;;;;;4977361;28;20027;-23
2021/12/23 13:21:42;;;;;;;10.82;2.70;;;;;;;;;;4959278;28;20042;-23
2021/12/23 13:24:12;;;;;;;14.18;2.58;;;;;;;;;;4976379;28;20105;-23
2021/12/23 13:26:39;;;;;;;14.43;2.75;;;;;;;;;;4959123;28;20039;-21
2021/12/23 13:29:07;;;;;;;16.70;3.03;;;;;;;;;;4958290;28;20431;-22
2021/12/23 13:31:34;;;;;;;12.45;2.40;;;;;;;;;;4976281;28;20408;-22
2021/12/23 13:34:03;;;;;;;18.75;4.18;;;;;;;;;;4976062;28;20062;-22
2021/12/23 13:36:34;;;;;;;13.88;3.92;;;;;;;;;;4975912;28;20035;-22
2021/12/23 13:39:02;;;;;;;18.77;3.35;;;;;;;;;;4975922;28;20030;-21
2021/12/23 13:41:29;;;;;;;13.60;3.17;;;;;;;;;;4975893;28;20065;-22
2021/12/23 13:44:16;;;;;;;8.77;3.33;;;;;;;;;;4975735;28;20029;-22
2021/12/23 13:47:01;;;;;;;30.92;5.60;;;;;;;;;;4959079;28;20086;-23
2021/12/23 13:49:31;;;;;;;18.10;3.13;;;;;;;;;;4958264;28;20394;-22
2021/12/23 13:51:57;;;;;;;15.82;4.10;;;;;;;;;;4975486;28;20047;-22
2021/12/23 13:54:23;;;;;;;11.43;3.10;;;;;;;;;;4975859;28;20022;-22
2021/12/23 13:56:50;;;;;;;18.27;3.53;;;;;;;;;;4975229;28;20042;-22
2021/12/23 13:59:17;;;;;;;12.75;4.03;;;;;;;;;;4975226;28;20041;-24
2021/12/23 14:01:52;;;;;;;17.33;4.10;;;;;;;;;;4975172;28;20097;-22
2021/12/23 14:04:48;;;;;;;15.73;3.03;;;;;;;;;;4975334;28;20058;-22
2021/12/23 14:07:19;;;;;;;10.93;3.58;;;;;;;;;;4938648;28;20134;-22
2021/12/23 14:09:47;;;;;;;19.30;4.78;;;;;;;;;;4975314;28;20031;-22
2021/12/23 14:12:15;;;;;;;18.20;3.50;;;;;;;;;;4974969;28;20089;-24
2021/12/23 14:15:01;;;;;;;17.25;4.30;;;;;;;;;;4957947;28;20038;-22
2021/12/23 14:17:32;;;;;;;27.70;5.40;;;;;;;;;;4975229;28;20023;-21
2021/12/23 14:23:13;;;;;;;25.55;3.75;;;;;;;;;;4975446;28;20113;-22
2021/12/23 14:25:58;;;;;;;18.40;5.18;;;;;;;;;;4975492;28;20027;-22
2021/12/23 14:28:34;;;;;;;16.10;2.90;;;;;;;;;;4975529;28;20041;-22
2021/12/23 14:31:05;;;;;;;18.65;3.58;;;;;;;;;;4975634;28;20350;-22
2021/12/23 14:33:42;;;;;;;17.08;3.55;;;;;;;;;;4958338;28;20027;-22
2021/12/23 14:36:09;;;;;;;18.65;4.53;;;;;;;;;;4975753;28;20027;-21
2021/12/23 14:38:39;;;;;;;23.98;3.92;;;;;;;;;;4975749;28;20054;-21
2021/12/23 14:41:05;;;;;;;15.63;3.65;;;;;;;;;;4977906;28;20038;-22
2021/12/23 14:43:53;;;;;;;20.42;4.95;;;;;;;;;;4979281;28;20035;-22
2021/12/23 14:46:28;;;;;;;30.40;4.60;;;;;;;;;;4979669;28;20429;-22
2021/12/23 14:49:09;;;;;;;29.73;5.90;;;;;;;;;;4979273;28;20027;-21
2021/12/23 14:51:37;;;;;;;18.60;4.63;;;;;;;;;;4979381;28;20085;-22
2021/12/23 14:54:11;;;;;;;27.83;5.50;;;;;;;;;;4979216;28;20037;-22
2021/12/23 14:56:38;;;;;;;22.13;3.58;;;;;;;;;;4979058;28;20034;-21
2021/12/23 14:59:07;;;;;;;35.08;5.38;;;;;;;;;;4978763;28;20038;-22
2021/12/23 15:01:33;;;;;;;35.60;5.72;;;;;;;;;;4979114;28;20373;-22
2021/12/23 15:04:04;;;;;;;30.48;5.20;;;;;;;;;;4978484;28;20047;-22
2021/12/23 15:06:30;;;;;;;17.10;4.50;;;;;;;;;;4979012;28;20026;-23
2021/12/23 15:08:56;;;;;;;14.38;3.80;;;;;;;;;;4978780;28;20085;-22
2021/12/23 15:11:29;;;;;;;16.15;3.42;;;;;;;;;;4978834;28;20019;-20
2021/12/23 15:13:55;;;;;;;13.45;3.83;;;;;;;;;;4978868;28;20061;-21
2021/12/23 15:16:24;;;;;;;15.27;3.83;;;;;;;;;;4978607;28;20073;-21
2021/12/23 15:21:49;;;;;;;23.92;3.83;;;;;;;;;;4978575;28;20089;-23
2021/12/23 15:24:19;;;;;;;18.30;3.85;;;;;;;;;;4961680;28;20062;-21
2021/12/23 15:26:54;;;;;;;12.98;3.08;;;;;;;;;;4978956;28;20027;-22
2021/12/23 15:29:22;;;;;;;18.15;3.45;;;;;;;;;;4978834;28;20050;-22
2021/12/23 15:32:00;;;;;;;13.57;3.08;;;;;;;;;;4978248;28;20031;-22
2021/12/23 15:34:28;;;;;;;17.33;4.03;;;;;;;;;;4978498;28;20513;-22
2021/12/23 15:36:55;;;;;;;17.77;3.38;;;;;;;;;;4978248;28;20086;-22
2021/12/23 15:39:23;;;;;;;21.63;3.33;;;;;;;;;;4978121;28;20053;-22
2021/12/23 15:41:50;;;;;;;13.88;4.50;;;;;;;;;;4978019;28;20023;-21
2021/12/23 15:44:16;;;;;;;29.30;4.57;;;;;;;;;;4978446;28;20030;-24
2021/12/23 15:46:43;;;;;;;17.23;3.78;;;;;;;;;;4978122;28;20117;-22
2021/12/23 15:49:09;;;;;;;8.93;2.88;;;;;;;;;;4978174;28;20030;-22
2021/12/23 15:51:37;;;;;;;16.33;4.03;;;;;;;;;;4977573;28;20332;-21
2021/12/23 15:54:04;;;;;;;19.48;5.82;;;;;;;;;;4960699;28;20027;-21
2021/12/23 15:56:30;;;;;;;25.35;3.80;;;;;;;;;;4978100;28;20023;-22
2021/12/23 15:58:56;;;;;;;17.77;3.55;;;;;;;;;;4978142;28;20354;-22
2021/12/23 16:01:24;;;;;;;16.55;3.22;;;;;;;;;;4978106;28;20026;-22
2021/12/23 16:03:52;;;;;;;11.98;2.85;;;;;;;;;;4977559;28;20086;-21
2021/12/23 16:09:04;;;;;;;24.02;3.60;;;;;;;;;;4977746;28;20050;-21
2021/12/23 16:11:30;;;;;;;18.40;3.08;;;;;;;;;;4961152;28;20074;-21
2021/12/23 16:13:57;;;;;;;28.63;4.55;;;;;;;;;;4977371;28;20066;-21